Time;durP1;ratioP1;P1;durP2;ratioP2;P2;SDS_P1;SDS_P2;PMS_P1;PMS_P2;Temp;Humidity;BMP_temperature;BMP_pressure;BME280_temperature;BME280_humidity;BME280_pressure;Samples;Min_cycle;Max_cycle;Signal;HPM_P1;HPM_P2
2021/01/19 00:00:26;;;;;;;97.83;37.63;;;-10.50;99.90;;;;;;5079254;28;20212;-73
2021/01/19 00:02:52;;;;;;;97.63;38.70;;;-10.50;99.90;;;;;;5077966;28;20355;-73
2021/01/19 00:05:19;;;;;;;114.27;40.80;;;-10.50;99.90;;;;;;5076899;28;20209;-74
2021/01/19 00:07:45;;;;;;;95.50;36.57;;;-10.60;99.90;;;;;;5084656;28;20211;-74
2021/01/19 00:10:13;;;;;;;97.50;36.03;;;-10.60;99.90;;;;;;5079004;28;20342;-74
2021/01/19 00:12:39;;;;;;;96.57;35.30;;;-10.70;99.90;;;;;;5075527;28;20320;-73
2021/01/19 00:15:07;;;;;;;91.67;35.23;;;-10.70;99.90;;;;;;5080634;28;20721;-74
2021/01/19 00:17:34;;;;;;;99.33;37.87;;;-10.80;99.90;;;;;;5079439;28;20572;-73
2021/01/19 00:20:01;;;;;;;97.93;37.03;;;-10.90;99.90;;;;;;5075815;28;20547;-73
2021/01/19 00:22:29;;;;;;;103.00;35.83;;;-10.90;99.90;;;;;;5089646;28;20678;-74
2021/01/19 00:24:55;;;;;;;96.53;35.87;;;-10.90;99.90;;;;;;5081572;28;20324;-73
2021/01/19 00:27:23;;;;;;;89.53;36.17;;;-10.90;99.90;;;;;;5089642;28;20295;-74
2021/01/19 00:29:49;;;;;;;93.10;35.40;;;-10.90;99.90;;;;;;5084877;28;20283;-74
2021/01/19 00:32:15;;;;;;;90.73;37.10;;;-10.80;99.90;;;;;;5082367;28;20300;-74
2021/01/19 00:34:42;;;;;;;91.73;35.97;;;-10.80;99.90;;;;;;5084472;28;20219;-73
2021/01/19 00:37:08;;;;;;;97.20;34.73;;;-10.80;99.90;;;;;;5083369;28;20295;-74
2021/01/19 00:39:34;;;;;;;91.43;36.93;;;-10.80;99.90;;;;;;5079888;28;21316;-73
2021/01/19 00:42:01;;;;;;;99.03;39.33;;;-10.80;99.90;;;;;;5078456;28;20560;-73
2021/01/19 00:44:28;;;;;;;104.27;39.70;;;-10.80;99.90;;;;;;5084952;28;20213;-73
2021/01/19 00:46:54;;;;;;;86.50;33.87;;;-10.80;99.90;;;;;;5084395;28;20638;-72
2021/01/19 00:49:21;;;;;;;103.43;39.00;;;-10.80;99.90;;;;;;5072673;28;20261;-73
2021/01/19 00:51:47;;;;;;;87.03;36.17;;;-10.90;99.90;;;;;;5082146;28;20250;-73
2021/01/19 00:54:14;;;;;;;72.77;31.43;;;-11.00;99.90;;;;;;5083848;28;20204;-72
2021/01/19 00:56:41;;;;;;;99.53;37.67;;;-11.00;99.90;;;;;;5090992;28;20413;-72
2021/01/19 00:59:08;;;;;;;92.03;36.47;;;-11.00;99.90;;;;;;5080391;28;20198;-72
2021/01/19 01:01:43;;;;;;;89.93;36.17;;;-10.90;99.90;;;;;;5073235;28;20205;-73
2021/01/19 01:04:10;;;;;;;93.70;38.43;;;-10.80;99.90;;;;;;5080558;28;20200;-73
2021/01/19 01:06:36;;;;;;;96.33;38.00;;;-10.80;99.90;;;;;;5082177;28;20300;-73
2021/01/19 01:09:03;;;;;;;98.57;36.10;;;-10.70;99.90;;;;;;5085521;28;20253;-72
2021/01/19 01:11:36;;;;;;;96.83;35.93;;;-10.60;99.90;;;;;;5081832;28;20227;-72
2021/01/19 01:14:03;;;;;;;97.67;38.43;;;-10.50;99.90;;;;;;5080147;28;20201;-72
2021/01/19 01:16:29;;;;;;;91.80;34.77;;;-10.40;99.90;;;;;;5075056;28;20209;-72
2021/01/19 01:18:57;;;;;;;99.07;38.17;;;-10.40;99.90;;;;;;5077855;28;20689;-73
2021/01/19 01:21:23;;;;;;;101.80;38.83;;;-10.40;99.90;;;;;;5075435;28;20284;-73
2021/01/19 01:23:49;;;;;;;108.20;38.00;;;-10.40;99.90;;;;;;5079535;28;20219;-72
2021/01/19 01:26:18;;;;;;;97.93;39.40;;;-10.40;99.90;;;;;;5077258;28;20269;-73
2021/01/19 01:28:45;;;;;;;93.03;36.10;;;-10.40;99.90;;;;;;5073304;28;20226;-73
2021/01/19 01:31:11;;;;;;;97.93;37.67;;;-10.50;99.90;;;;;;5073838;28;20209;-71
2021/01/19 01:33:38;;;;;;;100.57;39.07;;;-10.50;99.90;;;;;;5075794;28;20288;-72
2021/01/19 01:36:06;;;;;;;105.30;39.33;;;-10.50;99.90;;;;;;5076859;28;20205;-72
2021/01/19 01:38:32;;;;;;;108.87;39.47;;;-10.50;99.90;;;;;;5074936;28;20197;-74
2021/01/19 01:40:59;;;;;;;80.13;34.17;;;-10.50;99.90;;;;;;5082925;28;20232;-73
2021/01/19 01:43:25;;;;;;;87.33;36.53;;;-10.40;99.90;;;;;;5079549;28;20243;-73
2021/01/19 01:45:52;;;;;;;89.37;36.00;;;-10.40;99.90;;;;;;5087117;28;20209;-73
2021/01/19 01:48:18;;;;;;;84.13;35.10;;;-10.30;99.90;;;;;;5076569;28;20275;-74
2021/01/19 01:50:45;;;;;;;94.23;35.10;;;-10.20;99.90;;;;;;5083420;28;20205;-74
2021/01/19 01:53:13;;;;;;;91.13;33.87;;;-10.20;99.90;;;;;;5086979;28;20211;-73
2021/01/19 01:55:40;;;;;;;75.50;34.37;;;-10.10;99.90;;;;;;5077973;28;20205;-73
2021/01/19 01:58:06;;;;;;;90.97;36.23;;;-10.10;99.90;;;;;;5075536;28;20231;-73
2021/01/19 02:00:33;;;;;;;84.93;33.07;;;-10.10;99.90;;;;;;5074798;28;20206;-73
2021/01/19 02:02:59;;;;;;;94.13;37.17;;;-10.10;99.90;;;;;;5076567;28;20220;-72
2021/01/19 02:05:27;;;;;;;88.53;34.93;;;-10.10;99.90;;;;;;5076361;28;20205;-73
2021/01/19 02:08:17;;;;;;;102.37;38.17;;;-10.10;99.90;;;;;;5075476;28;20308;-74
2021/01/19 02:10:51;;;;;;;83.73;34.70;;;-10.10;99.90;;;;;;5078369;28;20292;-74
2021/01/19 02:13:29;;;;;;;89.53;34.97;;;-10.10;99.90;;;;;;5081288;28;20220;-72
2021/01/19 02:16:02;;;;;;;66.67;31.53;;;-10.10;99.90;;;;;;5082778;28;20212;-72
2021/01/19 02:18:46;;;;;;;90.23;34.37;;;-10.10;99.90;;;;;;5085602;28;20269;-73
2021/01/19 02:21:48;;;;;;;76.43;27.50;;;-10.20;99.90;;;;;;5069258;28;20204;-73
2021/01/19 02:24:28;;;;;;;74.63;29.17;;;-10.30;99.90;;;;;;5079268;28;20675;-73
2021/01/19 02:27:27;;;;;;;78.40;32.23;;;-10.40;99.90;;;;;;5074850;28;20205;-73
2021/01/19 02:30:16;;;;;;;70.90;31.70;;;-10.40;99.90;;;;;;5076589;28;20236;-72
2021/01/19 02:32:55;;;;;;;95.27;33.57;;;-10.50;99.90;;;;;;5073934;28;20248;-73
2021/01/19 02:35:25;;;;;;;86.37;31.43;;;-10.50;99.90;;;;;;5073889;28;20276;-73
2021/01/19 02:38:00;;;;;;;92.60;33.17;;;-10.50;99.90;;;;;;5079549;28;20201;-72
2021/01/19 02:40:27;;;;;;;80.77;32.63;;;-10.50;99.90;;;;;;5073607;28;20208;-72
2021/01/19 02:43:07;;;;;;;76.53;30.80;;;-10.50;99.90;;;;;;5078151;28;20286;-72
2021/01/19 02:45:33;;;;;;;72.90;27.43;;;-10.40;99.90;;;;;;5081007;28;20292;-73
2021/01/19 02:48:01;;;;;;;92.10;34.10;;;-10.40;99.90;;;;;;5075910;28;20210;-73
2021/01/19 02:50:28;;;;;;;89.70;33.70;;;-10.40;99.90;;;;;;5074730;28;20264;-73
2021/01/19 02:52:54;;;;;;;86.53;33.67;;;-10.40;99.90;;;;;;5079674;28;20205;-73
2021/01/19 02:55:21;;;;;;;82.93;31.20;;;-10.40;99.90;;;;;;5071971;28;20646;-73
2021/01/19 02:58:02;;;;;;;88.33;34.53;;;-10.30;99.90;;;;;;5080027;28;20233;-73
2021/01/19 03:00:35;;;;;;;75.23;31.07;;;-10.30;99.90;;;;;;5072184;28;20209;-73
2021/01/19 03:03:05;;;;;;;82.97;33.90;;;-10.30;99.90;;;;;;5077037;28;20215;-73
2021/01/19 03:05:32;;;;;;;89.03;34.50;;;-10.20;99.90;;;;;;5075316;28;20207;-72
2021/01/19 03:08:04;;;;;;;72.90;27.83;;;-10.20;99.90;;;;;;5076666;28;20250;-73
2021/01/19 03:10:32;;;;;;;89.23;35.30;;;-10.10;99.90;;;;;;5076813;28;20212;-73
2021/01/19 03:12:59;;;;;;;87.13;33.53;;;-10.10;99.90;;;;;;5085970;28;20232;-73
2021/01/19 03:15:26;;;;;;;98.03;35.53;;;-10.00;99.90;;;;;;5072631;28;20208;-73
2021/01/19 03:17:52;;;;;;;84.70;34.03;;;-10.00;99.90;;;;;;5083721;28;20212;-73
2021/01/19 03:20:25;;;;;;;86.07;34.10;;;-9.90;99.90;;;;;;5074406;28;20286;-73
2021/01/19 03:22:51;;;;;;;97.67;36.83;;;-9.90;99.90;;;;;;5073182;28;20206;-75
2021/01/19 03:25:18;;;;;;;100.80;37.30;;;-9.90;99.90;;;;;;5077673;28;20343;-74
2021/01/19 03:27:45;;;;;;;90.97;35.03;;;-9.80;99.90;;;;;;5075185;28;20201;-74
2021/01/19 03:30:13;;;;;;;83.73;35.90;;;-9.80;99.90;;;;;;5087443;28;20281;-73
2021/01/19 03:32:39;;;;;;;95.43;34.47;;;-9.80;99.90;;;;;;5079992;28;20268;-73
2021/01/19 03:35:07;;;;;;;107.57;38.97;;;-9.70;99.90;;;;;;5077622;28;20213;-73
2021/01/19 03:37:34;;;;;;;97.67;38.37;;;-9.70;99.90;;;;;;5078838;28;20229;-73
2021/01/19 03:40:00;;;;;;;96.70;38.63;;;-9.70;99.90;;;;;;5073922;28;20288;-73
2021/01/19 03:42:27;;;;;;;101.73;40.70;;;-9.70;99.90;;;;;;5081988;28;20293;-74
2021/01/19 03:44:53;;;;;;;101.90;41.40;;;-9.70;99.90;;;;;;5079598;28;20236;-73
2021/01/19 03:47:19;;;;;;;105.00;42.00;;;-9.80;99.90;;;;;;5076798;28;20212;-73
2021/01/19 03:49:46;;;;;;;101.77;40.03;;;-9.80;99.90;;;;;;5087651;28;20224;-73
2021/01/19 03:52:12;;;;;;;93.97;37.93;;;-9.80;99.90;;;;;;5093508;28;20615;-74
2021/01/19 03:54:39;;;;;;;110.77;42.27;;;-9.80;99.90;;;;;;5087927;28;20236;-73
2021/01/19 03:57:06;;;;;;;97.17;41.63;;;-9.80;99.90;;;;;;5081392;28;20240;-75
2021/01/19 03:59:32;;;;;;;99.07;39.10;;;-9.80;99.90;;;;;;5077602;28;20198;-73
2021/01/19 04:01:59;;;;;;;108.53;41.40;;;-9.80;99.90;;;;;;5082177;28;20313;-73
2021/01/19 04:04:25;;;;;;;106.57;41.17;;;-9.80;99.90;;;;;;5080555;28;20647;-73
2021/01/19 04:06:52;;;;;;;114.27;43.47;;;-9.70;99.90;;;;;;5082529;28;20584;-73
2021/01/19 04:09:18;;;;;;;112.60;44.63;;;-9.70;99.90;;;;;;5090525;28;20216;-74
2021/01/19 04:11:45;;;;;;;119.10;45.87;;;-9.70;99.90;;;;;;5080164;28;20225;-74
2021/01/19 04:14:11;;;;;;;102.73;41.83;;;-9.70;99.90;;;;;;5075272;28;20266;-73
2021/01/19 04:16:38;;;;;;;105.53;41.30;;;-9.80;99.90;;;;;;5075110;28;20209;-73
2021/01/19 04:19:04;;;;;;;108.93;42.07;;;-9.80;99.90;;;;;;5078811;28;20296;-73
2021/01/19 04:21:32;;;;;;;119.87;42.37;;;-9.70;99.90;;;;;;5076444;28;20269;-73
2021/01/19 04:23:58;;;;;;;102.40;40.23;;;-9.70;99.90;;;;;;5081266;28;20208;-73
2021/01/19 04:26:25;;;;;;;112.43;40.33;;;-9.70;99.90;;;;;;5075601;28;20362;-73
2021/01/19 04:28:52;;;;;;;101.90;40.50;;;-9.70;99.90;;;;;;5078475;28;20708;-75
2021/01/19 04:31:19;;;;;;;93.20;35.50;;;-9.80;99.90;;;;;;5082952;28;20231;-73
2021/01/19 04:33:45;;;;;;;91.43;38.83;;;-9.80;99.90;;;;;;5083266;28;20599;-75
2021/01/19 04:36:12;;;;;;;99.93;38.80;;;-9.80;99.90;;;;;;5075876;28;20204;-73
2021/01/19 04:38:38;;;;;;;115.87;43.67;;;-9.80;99.90;;;;;;5084825;28;20296;-74
2021/01/19 04:41:07;;;;;;;93.53;39.07;;;-9.80;99.90;;;;;;5084041;28;20332;-74
2021/01/19 04:43:34;;;;;;;102.43;39.63;;;-9.80;99.90;;;;;;5074879;28;20209;-75
2021/01/19 04:46:03;;;;;;;93.57;35.83;;;-9.80;99.90;;;;;;5081658;28;20284;-74
2021/01/19 04:48:31;;;;;;;72.67;31.17;;;-9.80;99.90;;;;;;5076390;28;20310;-74
2021/01/19 04:50:58;;;;;;;105.87;38.20;;;-9.70;99.90;;;;;;5073696;28;20624;-73
2021/01/19 04:53:26;;;;;;;95.10;38.13;;;-9.70;99.90;;;;;;5080666;28;20204;-74
2021/01/19 04:55:54;;;;;;;104.60;37.90;;;-9.70;99.90;;;;;;5080274;28;20209;-73
2021/01/19 04:58:24;;;;;;;98.27;40.43;;;-9.70;99.90;;;;;;5079248;28;20241;-74
2021/01/19 05:01:06;;;;;;;105.67;40.00;;;-9.60;99.90;;;;;;5088059;28;20208;-74
2021/01/19 05:03:43;;;;;;;101.50;39.30;;;-9.60;99.90;;;;;;5084123;28;20212;-74
2021/01/19 05:06:56;;;;;;;102.07;40.60;;;-9.50;99.90;;;;;;5074673;28;20200;-74
2021/01/19 05:09:30;;;;;;;96.63;34.77;;;-9.40;99.90;;;;;;5074961;28;20225;-74
2021/01/19 05:12:03;;;;;;;81.40;31.60;;;-9.40;99.90;;;;;;5080391;28;20309;-75
2021/01/19 05:14:37;;;;;;;83.33;35.83;;;-9.40;99.90;;;;;;5078836;28;20193;-73
2021/01/19 05:17:05;;;;;;;101.03;39.27;;;-9.40;99.90;;;;;;5077550;28;20204;-73
2021/01/19 05:19:31;;;;;;;99.93;41.20;;;-9.40;99.90;;;;;;5077628;28;20589;-73
2021/01/19 05:21:58;;;;;;;104.17;41.43;;;-9.40;99.90;;;;;;5086246;28;20215;-74
2021/01/19 05:24:25;;;;;;;93.93;36.17;;;-9.40;99.90;;;;;;5086115;28;20232;-74
2021/01/19 05:26:52;;;;;;;87.07;35.90;;;-9.40;99.90;;;;;;5079794;28;20229;-74
2021/01/19 05:29:19;;;;;;;89.73;35.47;;;-9.30;99.90;;;;;;5088778;28;20290;-73
2021/01/19 05:31:51;;;;;;;78.03;31.90;;;-9.40;99.90;;;;;;5081730;28;20354;-72
2021/01/19 05:34:18;;;;;;;97.50;34.10;;;-9.40;99.90;;;;;;5079484;28;20611;-74
2021/01/19 05:36:50;;;;;;;107.20;36.67;;;-9.40;99.90;;;;;;5074270;28;20344;-74
2021/01/19 05:39:18;;;;;;;91.33;37.17;;;-9.40;99.90;;;;;;5078623;28;20181;-74
2021/01/19 05:41:46;;;;;;;91.07;35.50;;;-9.40;99.90;;;;;;5072548;28;20730;-74
2021/01/19 05:44:16;;;;;;;88.60;37.00;;;-9.40;99.90;;;;;;5077178;28;20355;-73
2021/01/19 05:46:45;;;;;;;77.77;29.43;;;-9.40;99.90;;;;;;5074517;28;20261;-74
2021/01/19 05:49:16;;;;;;;91.17;36.17;;;-9.30;99.90;;;;;;5074871;28;20229;-74
2021/01/19 05:51:45;;;;;;;95.73;35.43;;;-9.30;99.90;;;;;;5073178;28;20201;-75
2021/01/19 05:54:21;;;;;;;88.13;34.60;;;-9.30;99.90;;;;;;5083021;28;20208;-73
2021/01/19 05:56:49;;;;;;;79.07;30.33;;;-9.30;99.90;;;;;;5073697;28;20584;-73
2021/01/19 05:59:28;;;;;;;101.77;38.93;;;-9.30;99.90;;;;;;5076313;28;20229;-73
2021/01/19 06:01:59;;;;;;;96.57;34.10;;;-9.30;99.90;;;;;;5077367;28;20201;-74
2021/01/19 06:04:31;;;;;;;91.67;35.80;;;-9.30;99.90;;;;;;5079237;28;20205;-74
2021/01/19 06:06:59;;;;;;;97.17;38.00;;;-9.20;99.90;;;;;;5084563;28;20207;-74
2021/01/19 06:09:26;;;;;;;106.03;35.70;;;-9.20;99.90;;;;;;5082924;28;20263;-74
2021/01/19 06:11:53;;;;;;;92.40;37.10;;;-9.20;99.90;;;;;;5078508;28;20221;-74
2021/01/19 06:14:21;;;;;;;97.03;38.97;;;-9.10;99.90;;;;;;5084280;28;20699;-73
2021/01/19 06:16:48;;;;;;;96.10;37.17;;;-9.10;99.90;;;;;;5077012;28;20208;-74
2021/01/19 06:19:27;;;;;;;83.50;35.40;;;-9.00;99.90;;;;;;5073506;28;20201;-73
2021/01/19 06:21:53;;;;;;;93.03;38.00;;;-9.00;99.90;;;;;;5081623;28;20198;-74
2021/01/19 06:24:31;;;;;;;91.83;36.73;;;-8.90;99.90;;;;;;5082666;28;20201;-74
2021/01/19 06:26:57;;;;;;;96.73;38.67;;;-9.00;99.90;;;;;;5076536;28;20266;-74
2021/01/19 06:29:24;;;;;;;80.90;36.23;;;-8.90;99.90;;;;;;5080827;28;20229;-73
2021/01/19 06:31:51;;;;;;;92.60;35.97;;;-8.90;99.90;;;;;;5086188;28;20291;-73
2021/01/19 06:34:29;;;;;;;90.57;36.10;;;-8.80;99.90;;;;;;5081710;28;20565;-73
2021/01/19 06:36:55;;;;;;;95.07;38.30;;;-8.80;99.90;;;;;;5075312;28;20282;-74
2021/01/19 06:39:33;;;;;;;75.20;32.10;;;-8.80;99.90;;;;;;5073406;28;20296;-74
2021/01/19 06:42:09;;;;;;;90.77;36.97;;;-8.80;99.90;;;;;;5076764;28;20235;-74
2021/01/19 06:44:38;;;;;;;98.87;37.83;;;-8.80;99.90;;;;;;5080544;28;20221;-75
2021/01/19 06:47:06;;;;;;;96.93;34.47;;;-8.80;99.90;;;;;;5072627;28;20211;-75
2021/01/19 06:49:34;;;;;;;92.70;34.63;;;-8.70;99.90;;;;;;5064114;28;21125;-75
2021/01/19 06:52:06;;;;;;;86.00;37.53;;;-8.70;99.90;;;;;;5029889;28;20287;-75
2021/01/19 06:54:55;;;;;;;95.73;38.53;;;-8.60;99.90;;;;;;5033865;28;20595;-75
2021/01/19 06:57:31;;;;;;;107.83;40.83;;;-8.60;99.90;;;;;;5029326;28;20202;-75
2021/01/19 07:00:06;;;;;;;105.07;40.13;;;-8.60;99.90;;;;;;5025060;28;20238;-75
2021/01/19 07:02:36;;;;;;;96.77;39.37;;;-8.50;99.90;;;;;;5023629;28;20222;-75
2021/01/19 07:05:12;;;;;;;89.07;36.73;;;-8.40;99.90;;;;;;5028994;28;20213;-74
2021/01/19 07:07:48;;;;;;;97.87;41.73;;;-8.40;99.90;;;;;;5029948;28;20202;-72
2021/01/19 07:10:19;;;;;;;93.17;40.90;;;-8.30;99.90;;;;;;5033927;28;20668;-74
2021/01/19 07:13:00;;;;;;;108.40;39.30;;;-8.30;99.90;;;;;;5026773;28;20755;-73
2021/01/19 07:15:52;;;;;;;98.07;36.90;;;-8.20;99.90;;;;;;5033627;28;20671;-75
2021/01/19 07:18:23;;;;;;;93.57;36.13;;;-8.20;99.90;;;;;;5031190;28;20207;-75
2021/01/19 07:21:04;;;;;;;88.57;35.80;;;-8.10;99.90;;;;;;5035308;28;20217;-74
2021/01/19 07:23:53;;;;;;;78.57;32.77;;;-8.10;99.90;;;;;;5037317;28;20205;-74
2021/01/19 07:26:24;;;;;;;90.97;36.27;;;-8.10;99.90;;;;;;5032776;28;20210;-72
2021/01/19 07:28:51;;;;;;;94.07;36.07;;;-8.10;99.90;;;;;;5032802;28;20310;-73
2021/01/19 07:31:26;;;;;;;86.73;35.73;;;-8.20;99.90;;;;;;5036727;28;20222;-76
2021/01/19 07:33:58;;;;;;;98.70;39.93;;;-7.70;99.90;;;;;;5032551;28;20211;-74
2021/01/19 07:36:26;;;;;;;109.17;41.73;;;-8.20;99.90;;;;;;5028090;28;20209;-76
2021/01/19 07:38:53;;;;;;;100.80;36.87;;;-8.20;99.90;;;;;;5027879;28;20313;-76
2021/01/19 07:41:27;;;;;;;91.97;36.93;;;-8.20;99.90;;;;;;5025234;28;20206;-76
2021/01/19 07:43:54;;;;;;;104.20;40.03;;;-8.20;99.90;;;;;;5033907;28;20213;-75
2021/01/19 07:46:26;;;;;;;88.23;37.40;;;-8.20;99.90;;;;;;5028395;28;20348;-74
2021/01/19 07:49:01;;;;;;;95.83;37.20;;;-8.20;99.90;;;;;;5031192;28;20318;-80
2021/01/19 07:51:42;;;;;;;107.13;41.17;;;-8.10;99.90;;;;;;5032745;28;20690;-79
2021/01/19 07:54:09;;;;;;;98.10;39.77;;;-8.10;99.90;;;;;;5039298;28;20741;-75
2021/01/19 07:56:37;;;;;;;108.40;40.37;;;-8.00;99.90;;;;;;5033858;28;20238;-74
2021/01/19 07:59:14;;;;;;;107.60;43.73;;;-8.00;99.90;;;;;;5029962;28;20313;-72
2021/01/19 08:01:40;;;;;;;86.80;36.47;;;-7.90;99.90;;;;;;5028391;28;20209;-70
2021/01/19 08:04:11;;;;;;;100.83;40.37;;;-7.90;99.90;;;;;;5030626;28;20207;-73
2021/01/19 08:06:38;;;;;;;115.67;40.73;;;-7.90;99.90;;;;;;5030341;28;20841;-71
2021/01/19 08:09:11;;;;;;;100.03;40.80;;;-7.90;99.90;;;;;;5028539;28;20341;-74
2021/01/19 08:11:39;;;;;;;101.77;38.20;;;-7.80;99.90;;;;;;5031666;28;20349;-75
2021/01/19 08:14:06;;;;;;;104.60;41.50;;;-7.80;99.90;;;;;;5029692;28;20636;-76
2021/01/19 08:16:35;;;;;;;109.90;43.47;;;-7.70;99.90;;;;;;5028875;28;20399;-73
2021/01/19 08:19:08;;;;;;;101.17;39.77;;;-7.60;99.90;;;;;;5029052;28;20214;-73
2021/01/19 08:21:36;;;;;;;108.87;41.87;;;-7.60;99.90;;;;;;5020428;28;20299;-73
2021/01/19 08:24:07;;;;;;;111.30;44.73;;;-7.60;99.90;;;;;;5026497;28;20297;-73
2021/01/19 08:26:35;;;;;;;98.93;40.37;;;-7.50;99.90;;;;;;5034526;28;20298;-73
2021/01/19 08:29:04;;;;;;;101.63;41.83;;;-7.50;99.90;;;;;;5032915;28;20717;-74
2021/01/19 08:31:36;;;;;;;100.93;40.63;;;-7.50;99.90;;;;;;5036799;28;20286;-75
2021/01/19 08:34:04;;;;;;;101.27;41.57;;;-7.50;99.90;;;;;;5024854;28;20265;-73
2021/01/19 08:36:34;;;;;;;113.27;43.07;;;-7.50;99.90;;;;;;5037075;28;20211;-74
2021/01/19 08:39:04;;;;;;;103.47;42.30;;;-7.50;99.90;;;;;;5033236;28;20211;-74
2021/01/19 08:41:31;;;;;;;85.00;41.03;;;-7.50;99.90;;;;;;5028666;28;20233;-72
2021/01/19 08:43:58;;;;;;;104.10;41.47;;;-7.40;99.90;;;;;;5028841;28;20294;-73
2021/01/19 08:46:27;;;;;;;103.77;41.80;;;-7.40;99.90;;;;;;5034611;28;20277;-73
2021/01/19 08:48:59;;;;;;;104.03;41.17;;;-7.40;99.90;;;;;;5027607;28;20227;-72
2021/01/19 08:51:26;;;;;;;109.80;43.33;;;-7.40;99.90;;;;;;5021226;28;20569;-72
2021/01/19 08:53:53;;;;;;;95.67;41.40;;;-7.30;99.90;;;;;;5024769;28;20268;-73
2021/01/19 08:56:21;;;;;;;108.23;40.50;;;-7.30;99.90;;;;;;5034377;28;20354;-71
2021/01/19 08:58:48;;;;;;;113.17;44.93;;;-7.20;99.90;;;;;;5030726;28;20291;-73
2021/01/19 09:01:15;;;;;;;110.30;45.90;;;-7.20;99.90;;;;;;5033810;28;20215;-72
2021/01/19 09:03:43;;;;;;;113.53;44.67;;;-7.10;99.90;;;;;;5027008;28;20225;-72
2021/01/19 09:06:12;;;;;;;113.77;44.20;;;-7.10;99.90;;;;;;5029513;28;20206;-72
2021/01/19 09:08:41;;;;;;;106.13;40.93;;;-7.00;99.90;;;;;;5034589;28;20214;-73
2021/01/19 09:11:09;;;;;;;103.20;42.90;;;-7.00;99.90;;;;;;5035494;28;20308;-76
2021/01/19 09:13:39;;;;;;;114.13;46.57;;;-7.00;99.90;;;;;;5032404;28;20199;-72
2021/01/19 09:16:06;;;;;;;108.23;43.83;;;-6.90;99.90;;;;;;5035267;28;20210;-72
2021/01/19 09:18:33;;;;;;;120.17;47.47;;;-7.00;99.90;;;;;;5036695;28;20207;-73
2021/01/19 09:21:04;;;;;;;105.07;44.17;;;-7.00;99.90;;;;;;5031685;28;20203;-72
2021/01/19 09:23:33;;;;;;;108.90;45.10;;;-6.90;99.90;;;;;;5029648;28;20564;-72
2021/01/19 09:26:06;;;;;;;122.50;47.93;;;-6.90;99.90;;;;;;5030682;28;20210;-72
2021/01/19 09:28:34;;;;;;;114.17;48.30;;;-6.90;99.90;;;;;;5028318;28;20241;-73
2021/01/19 09:31:16;;;;;;;110.40;45.10;;;-6.90;99.90;;;;;;5031956;28;20202;-74
2021/01/19 09:33:44;;;;;;;120.23;45.67;;;-6.80;99.90;;;;;;5033338;28;20210;-73
2021/01/19 09:36:13;;;;;;;115.50;45.17;;;-6.80;99.90;;;;;;5034101;28;20214;-73
2021/01/19 09:38:40;;;;;;;108.47;43.70;;;-6.80;99.90;;;;;;5027213;28;20225;-73
2021/01/19 09:41:08;;;;;;;117.60;48.10;;;-6.80;99.90;;;;;;5028909;28;20253;-73
2021/01/19 09:43:36;;;;;;;114.77;45.87;;;-6.80;99.90;;;;;;5031592;28;20203;-73
2021/01/19 09:46:05;;;;;;;111.43;47.40;;;-6.70;99.90;;;;;;5026977;28;20246;-72
2021/01/19 09:48:34;;;;;;;117.27;45.90;;;-6.70;99.90;;;;;;5031887;28;20593;-73
2021/01/19 09:51:01;;;;;;;115.77;47.47;;;-6.70;99.90;;;;;;5027621;28;20689;-73
2021/01/19 09:53:32;;;;;;;111.83;46.23;;;-6.70;99.90;;;;;;5023854;28;20250;-73
2021/01/19 09:55:59;;;;;;;106.77;46.80;;;-6.70;99.90;;;;;;5026070;28;20211;-75
2021/01/19 09:58:27;;;;;;;110.40;45.27;;;-6.70;99.90;;;;;;5032657;28;20269;-72
2021/01/19 10:00:57;;;;;;;118.13;48.77;;;-6.80;99.90;;;;;;5029328;28;20237;-73
2021/01/19 10:03:27;;;;;;;116.10;47.20;;;-6.70;99.90;;;;;;5026071;28;20202;-72
2021/01/19 10:06:02;;;;;;;126.63;48.73;;;-6.80;99.90;;;;;;5032222;28;20273;-72
2021/01/19 10:08:30;;;;;;;116.80;45.80;;;-6.70;99.90;;;;;;5025859;28;20260;-73
2021/01/19 10:10:57;;;;;;;117.73;45.83;;;-6.70;99.90;;;;;;5028451;28;20235;-73
2021/01/19 10:13:25;;;;;;;119.47;46.73;;;-6.60;99.90;;;;;;5029099;28;20234;-73
2021/01/19 10:15:57;;;;;;;118.20;48.87;;;-6.50;99.90;;;;;;5030338;28;20271;-73
2021/01/19 10:18:24;;;;;;;118.80;48.10;;;-6.50;99.90;;;;;;5027322;28;20210;-73
2021/01/19 10:20:51;;;;;;;120.00;48.20;;;-6.40;99.90;;;;;;5032709;28;20593;-72
2021/01/19 10:23:25;;;;;;;117.97;47.30;;;-6.30;99.90;;;;;;5029343;28;20210;-73
2021/01/19 10:26:04;;;;;;;126.17;49.43;;;-6.30;99.90;;;;;;5028507;28;20476;-73
2021/01/19 10:28:37;;;;;;;124.33;50.10;;;-6.30;99.90;;;;;;5026083;28;20206;-73
2021/01/19 10:31:14;;;;;;;111.03;46.33;;;-6.20;99.90;;;;;;5033841;28;20277;-73
2021/01/19 10:33:56;;;;;;;111.10;42.90;;;-6.10;99.90;;;;;;5039190;28;20201;-72
2021/01/19 10:36:25;;;;;;;110.13;42.47;;;-6.10;99.90;;;;;;5031035;28;20296;-73
2021/01/19 10:38:51;;;;;;;123.87;50.00;;;-6.10;99.90;;;;;;5030796;28;20199;-72
2021/01/19 10:41:27;;;;;;;115.63;46.93;;;-6.10;99.90;;;;;;5030622;28;20278;-72
2021/01/19 10:43:55;;;;;;;114.70;48.47;;;-6.10;99.90;;;;;;5022410;28;20203;-73
2021/01/19 10:46:23;;;;;;;112.43;44.70;;;-6.10;99.90;;;;;;5031557;28;20216;-72
2021/01/19 10:49:04;;;;;;;113.13;45.90;;;-6.00;99.90;;;;;;5031842;28;20221;-73
2021/01/19 10:51:32;;;;;;;130.60;50.47;;;-6.00;99.90;;;;;;5030874;28;20207;-72
2021/01/19 10:54:06;;;;;;;112.33;44.70;;;-5.90;99.90;;;;;;5025087;28;20215;-72
2021/01/19 10:56:33;;;;;;;121.90;49.77;;;-5.90;99.90;;;;;;5025976;28;20294;-72
2021/01/19 10:59:00;;;;;;;118.60;48.23;;;-5.80;99.90;;;;;;5022035;28;20241;-73
2021/01/19 11:01:27;;;;;;;105.30;47.83;;;-5.80;99.90;;;;;;5027599;28;20856;-73
2021/01/19 11:03:54;;;;;;;114.27;44.97;;;-5.70;99.90;;;;;;5028200;28;20294;-74
2021/01/19 11:06:21;;;;;;;110.07;47.50;;;-5.70;99.90;;;;;;5031845;28;20203;-72
2021/01/19 11:08:48;;;;;;;111.37;47.53;;;-5.60;99.90;;;;;;5027533;28;20290;-73
2021/01/19 11:11:17;;;;;;;116.23;47.80;;;-5.60;99.90;;;;;;5027548;28;20234;-73
2021/01/19 11:13:45;;;;;;;115.37;48.10;;;-5.40;99.90;;;;;;5023917;28;20214;-73
2021/01/19 11:16:11;;;;;;;122.63;50.33;;;-5.30;99.90;;;;;;5030385;28;20569;-71
2021/01/19 11:18:38;;;;;;;112.43;46.57;;;-5.30;99.90;;;;;;5031361;28;20213;-72
2021/01/19 11:21:05;;;;;;;115.47;47.83;;;-5.20;99.90;;;;;;5022740;28;20298;-73
2021/01/19 11:23:32;;;;;;;119.30;45.70;;;-5.20;99.90;;;;;;5025916;28;20203;-72
2021/01/19 11:26:01;;;;;;;119.50;48.47;;;-5.20;99.90;;;;;;5029433;28;20809;-72
2021/01/19 11:28:28;;;;;;;103.03;46.23;;;-5.30;99.90;;;;;;5028225;28;20507;-73
2021/01/19 11:31:00;;;;;;;116.63;45.93;;;-5.30;99.90;;;;;;5029042;28;20376;-71
2021/01/19 11:33:26;;;;;;;114.33;47.90;;;-5.30;99.90;;;;;;5022676;28;21095;-73
2021/01/19 11:35:54;;;;;;;109.43;47.63;;;-5.30;99.90;;;;;;5028298;28;20656;-75
2021/01/19 11:38:20;;;;;;;118.37;48.77;;;-5.30;99.90;;;;;;5033406;28;20206;-75
2021/01/19 11:40:48;;;;;;;115.23;47.37;;;-5.20;99.90;;;;;;5034863;28;20207;-74
2021/01/19 11:43:15;;;;;;;114.53;45.77;;;-5.00;99.90;;;;;;5027177;28;20219;-74
2021/01/19 11:45:41;;;;;;;117.27;47.67;;;-5.00;99.90;;;;;;5033840;28;20729;-74
2021/01/19 11:48:09;;;;;;;108.23;47.87;;;-4.80;99.90;;;;;;5024054;28;20655;-74
2021/01/19 11:50:39;;;;;;;108.57;46.87;;;-5.00;99.90;;;;;;5027550;28;20233;-74
2021/01/19 11:53:05;;;;;;;104.80;46.13;;;-5.00;99.90;;;;;;5034064;28;20266;-74
2021/01/19 11:55:32;;;;;;;109.77;46.00;;;-5.00;99.90;;;;;;5030677;28;20319;-73
2021/01/19 11:57:58;;;;;;;110.53;49.53;;;-5.10;99.90;;;;;;5031302;28;20202;-73
2021/01/19 12:00:26;;;;;;;118.83;49.70;;;-5.10;99.90;;;;;;5029500;28;20197;-74
2021/01/19 12:02:52;;;;;;;113.90;48.57;;;-5.10;99.90;;;;;;5033193;28;20218;-73
2021/01/19 12:05:19;;;;;;;111.23;48.40;;;-5.00;99.90;;;;;;5034426;28;20298;-74
2021/01/19 12:07:46;;;;;;;115.07;50.47;;;-5.00;99.90;;;;;;5028425;28;20290;-75
2021/01/19 12:10:12;;;;;;;112.03;49.03;;;-4.90;99.90;;;;;;5028654;28;20227;-73
2021/01/19 12:12:39;;;;;;;113.97;48.83;;;-4.90;99.90;;;;;;5031446;28;21430;-74
2021/01/19 12:15:06;;;;;;;117.80;48.57;;;-4.90;99.90;;;;;;5029760;28;20203;-72
2021/01/19 12:17:33;;;;;;;124.23;49.87;;;-4.80;99.90;;;;;;5028769;28;20289;-73
2021/01/19 12:19:59;;;;;;;117.40;50.27;;;-4.70;99.90;;;;;;5030228;28;20271;-74
2021/01/19 12:22:27;;;;;;;96.00;42.30;;;-4.70;99.90;;;;;;5027439;28;20524;-72
2021/01/19 12:24:53;;;;;;;121.37;50.27;;;-4.60;99.90;;;;;;5027475;28;20242;-74
2021/01/19 12:27:20;;;;;;;110.00;47.60;;;-4.60;99.90;;;;;;5027447;28;20732;-74
2021/01/19 12:29:46;;;;;;;112.83;48.00;;;-4.60;99.90;;;;;;5029395;28;20227;-74